x

Slate Island (45136) Weather Station

11:00pm - Sat 1st Aug 2015 All times are CDT. -5 hours from GMT.

  • Wind
  • Sea Temp 47°f
  • Air Temp 47°f
  • Sea Pressure 1004.8mb
  • Slate Island
  • Slate Island

More Historic Weather Station data

Upgrade to MSW Pro to gain access to the past 30 days of data for over 8000 Wavebouys and Weather Stations around the globe.

Join Pro

Comparision Forecast

View Surf forecast
   
Sat 08/01 11:00pm  -  2 mph 1004.8mb 47f 47f
10:00pm 4
mph
1005.3mb 47f 46f
9:00pm 4 7 mph 1005.6mb 47f 47f
8:00pm 4 7 mph 1006.1mb 47f 48f
7:00pm 4 7 mph 1006.3mb 46f 48f
6:00pm 16 20 mph 1006.2mb 47f 50f
5:00pm 18 20 mph 1006mb 47f 49f
4:00pm 18 20 mph 1006.8mb 46f 49f
3:00pm 16 18 mph 1007.5mb 46f 48f
2:00pm 16 18 mph 1007.8mb 45f 47f
1:00pm 18
mph
1008.1mb 45f 47f
12:00pm 16 20 mph 1008.5mb 44f 48f
11:00am 13 16 mph 1008.9mb 44f 47f
10:00am 11 13 mph 1008.8mb 42f 47f
9:00am 4 9 mph 1009.1mb 42f 49f
8:00am 9 11 mph 1009.1mb 42f 46f
7:00am 11 13 mph 1008.9mb 42f 46f
6:00am 9
mph
1008.7mb 42f 47f
5:00am 11
mph
1008.4mb 42f 46f
4:00am 11 13 mph 1008.2mb 42f 47f
3:00am 9 11 mph 1008.1mb 42f 47f
2:00am 11 13 mph 1008.2mb 42f 46f
1:00am 9
mph
1008.3mb 42f 46f
12:00am 4
mph
1008.6mb 42f 47f
Fri 07/31 11:00pm 9
mph
1008.8mb 42f 46f
10:00pm 11 13 mph 1008.7mb 42f 48f
9:00pm 13 16 mph 1008.5mb 42f 48f
8:00pm 11 13 mph 1008.4mb 42f 49f
7:00pm 13 16 mph 1008.4mb 42f 48f
5:00pm 16 18 mph 1007.9mb 42f 50f
4:00pm 13 16 mph 1008mb 42f 49f
3:00pm 13 16 mph 1008mb 42f 47f
2:00pm 13
mph
1008.1mb 42f 47f
1:00pm 11 13 mph 1008.4mb 42f 46f
12:00pm 13
mph
1008.8mb 42f 46f
11:00am 13 16 mph 1008.6mb 42f 47f
10:00am 9 11 mph 1008.6mb 42f 47f
9:00am 9
mph
1008.3mb 42f 46f
8:00am 7 9 mph 1008.3mb 41f 46f
7:00am 11 13 mph 1008.3mb 41f 46f
6:00am 13
mph
1007.7mb 41f 47f
5:00am 13 16 mph 1007.5mb 41f 46f
4:00am 11
mph
1007.2mb 41f 47f
3:00am 13 16 mph 1007.5mb 41f 46f
2:00am 11 13 mph 1007.6mb 41f 46f
1:00am 11 13 mph 1007.8mb 41f 47f
12:00am 13 18 mph 1008mb 41f 48f
Thu 07/30 11:00pm 16 18 mph 1008.1mb 41f 49f
10:00pm 9 13 mph 1008mb 41f 47f
9:00pm 13 16 mph 1008mb 41f 48f
8:00pm 11 13 mph 1008.2mb 41f 48f
7:00pm 9 11 mph 1008.4mb 42f 47f
6:00pm 13 18 mph 1008.5mb 42f 50f
5:00pm 16 31 mph 1009.1mb 42f 47f
4:00pm 13 18 mph 1008.6mb 42f 47f
3:00pm 13 16 mph 1008.9mb 42f 47f
2:00pm 13 16 mph 1008.8mb 42f 48f
1:00pm 16 18 mph 1008.5mb 42f 49f
12:00pm 13 16 mph 1008.2mb 42f 49f
11:00am 13 16 mph 1007.7mb 41f 48f
10:00am 18 20 mph 1006.9mb 41f 48f
9:00am 13 16 mph 1006.7mb 41f 49f
8:00am 20 22 mph 1005.4mb 41f 49f
7:00am 18 20 mph 1005mb 41f 48f
6:00am 16 18 mph 1004mb 41f 48f
5:00am 18
mph
1003.3mb 42f 47f
4:00am 22 25 mph 1002.6mb 42f 49f
3:00am 18 22 mph 1002.5mb 42f 48f
2:00am 20 25 mph 1002.2mb 42f 49f
1:00am 20 22 mph 1002.3mb 42f 49f
12:00am 22 25 mph 1002.5mb 42f 51f
Wed 07/29 11:00pm 20 22 mph 1003.1mb 42f 48f
10:00pm 20 22 mph 1003.5mb 42f 47f
9:00pm 20 22 mph 1003.6mb 42f 48f
8:00pm 18 22 mph 1003.7mb 42f 47f
7:00pm 18 20 mph 1003.9mb 42f 46f
6:00pm 20
mph
1003.8mb - 49f
5:00pm 22 27 mph 1003.9mb 42f 49f
4:00pm 22 25 mph 1004.2mb 42f 49f
3:00pm 22
mph
1004.3mb - 49f
2:00pm 22 25 mph 1004.5mb 42f 49f
1:00pm 22 27 mph 1004.4mb 42f 50f
12:00pm 20 22 mph 1004.1mb 42f 48f
10:00am 18 20 mph 1004.6mb 42f 49f
9:00am 16 20 mph 1005.1mb 42f 49f
8:00am 11 13 mph 1005.3mb 42f 48f
7:00am 11
mph
1005.5mb 41f 47f
6:00am 18 22 mph 1005.5mb 41f 47f